sensor_id;sensor_type;location;lat;lon;timestamp;P1;durP1;ratioP1;P2;durP2;ratioP2
10565;SDS011;5331;48.148;16.326;2023-03-30T00:00:56;9.83;;;7.93;;
10565;SDS011;5331;48.148;16.326;2023-03-30T00:03:23;11.70;;;8.43;;
10565;SDS011;5331;48.148;16.326;2023-03-30T00:05:52;9.97;;;8.10;;
10565;SDS011;5331;48.148;16.326;2023-03-30T00:08:21;10.57;;;7.90;;
10565;SDS011;5331;48.148;16.326;2023-03-30T00:10:52;11.70;;;7.83;;
10565;SDS011;5331;48.148;16.326;2023-03-30T00:13:20;9.07;;;8.13;;
10565;SDS011;5331;48.148;16.326;2023-03-30T00:15:48;8.30;;;7.30;;
10565;SDS011;5331;48.148;16.326;2023-03-30T00:18:15;8.37;;;7.30;;
10565;SDS011;5331;48.148;16.326;2023-03-30T00:20:42;8.93;;;7.37;;
10565;SDS011;5331;48.148;16.326;2023-03-30T00:23:10;7.87;;;7.07;;
10565;SDS011;5331;48.148;16.326;2023-03-30T00:25:37;8.60;;;7.30;;
10565;SDS011;5331;48.148;16.326;2023-03-30T00:28:04;9.03;;;7.90;;
10565;SDS011;5331;48.148;16.326;2023-03-30T00:30:31;9.13;;;7.53;;
10565;SDS011;5331;48.148;16.326;2023-03-30T00:32:58;9.50;;;8.00;;
10565;SDS011;5331;48.148;16.326;2023-03-30T00:35:25;8.20;;;7.23;;
10565;SDS011;5331;48.148;16.326;2023-03-30T00:37:54;8.77;;;7.57;;
10565;SDS011;5331;48.148;16.326;2023-03-30T00:40:23;8.70;;;7.80;;
10565;SDS011;5331;48.148;16.326;2023-03-30T00:42:50;9.07;;;8.00;;
10565;SDS011;5331;48.148;16.326;2023-03-30T00:45:19;8.47;;;7.13;;
10565;SDS011;5331;48.148;16.326;2023-03-30T00:47:49;9.77;;;7.80;;
10565;SDS011;5331;48.148;16.326;2023-03-30T00:50:20;10.73;;;8.07;;
10565;SDS011;5331;48.148;16.326;2023-03-30T00:52:51;9.47;;;7.93;;
10565;SDS011;5331;48.148;16.326;2023-03-30T00:55:24;9.17;;;7.87;;
10565;SDS011;5331;48.148;16.326;2023-03-30T00:57:55;10.07;;;7.63;;
10565;SDS011;5331;48.148;16.326;2023-03-30T01:00:22;9.23;;;7.90;;
10565;SDS011;5331;48.148;16.326;2023-03-30T01:02:51;8.57;;;7.43;;
10565;SDS011;5331;48.148;16.326;2023-03-30T01:05:22;8.33;;;7.50;;
10565;SDS011;5331;48.148;16.326;2023-03-30T01:07:50;10.23;;;7.97;;
10565;SDS011;5331;48.148;16.326;2023-03-30T01:10:19;7.63;;;6.93;;
10565;SDS011;5331;48.148;16.326;2023-03-30T01:12:48;9.10;;;7.43;;
10565;SDS011;5331;48.148;16.326;2023-03-30T01:15:15;7.70;;;6.90;;
10565;SDS011;5331;48.148;16.326;2023-03-30T01:17:48;10.03;;;7.43;;
10565;SDS011;5331;48.148;16.326;2023-03-30T01:23:49;8.93;;;7.20;;
10565;SDS011;5331;48.148;16.326;2023-03-30T01:26:46;7.67;;;6.87;;
10565;SDS011;5331;48.148;16.326;2023-03-30T01:29:22;7.63;;;6.77;;
10565;SDS011;5331;48.148;16.326;2023-03-30T01:32:08;8.83;;;7.07;;
10565;SDS011;5331;48.148;16.326;2023-03-30T01:35:07;8.57;;;7.50;;
10565;SDS011;5331;48.148;16.326;2023-03-30T01:40:45;9.00;;;7.10;;
10565;SDS011;5331;48.148;16.326;2023-03-30T01:43:22;8.70;;;7.80;;
10565;SDS011;5331;48.148;16.326;2023-03-30T01:45:58;8.80;;;7.47;;
10565;SDS011;5331;48.148;16.326;2023-03-30T01:48:30;8.57;;;6.37;;
10565;SDS011;5331;48.148;16.326;2023-03-30T01:51:09;8.73;;;7.33;;
10565;SDS011;5331;48.148;16.326;2023-03-30T01:53:41;8.33;;;7.23;;
10565;SDS011;5331;48.148;16.326;2023-03-30T01:56:14;8.67;;;7.77;;
10565;SDS011;5331;48.148;16.326;2023-03-30T01:58:47;8.43;;;7.30;;
10565;SDS011;5331;48.148;16.326;2023-03-30T02:01:17;8.80;;;7.13;;
10565;SDS011;5331;48.148;16.326;2023-03-30T02:03:46;9.10;;;7.80;;
10565;SDS011;5331;48.148;16.326;2023-03-30T02:06:19;8.20;;;7.40;;
10565;SDS011;5331;48.148;16.326;2023-03-30T02:08:50;11.53;;;7.53;;
10565;SDS011;5331;48.148;16.326;2023-03-30T02:11:21;10.43;;;8.20;;
10565;SDS011;5331;48.148;16.326;2023-03-30T02:13:52;9.93;;;7.63;;
10565;SDS011;5331;48.148;16.326;2023-03-30T02:16:23;10.47;;;7.70;;
10565;SDS011;5331;48.148;16.326;2023-03-30T02:18:55;8.53;;;7.60;;
10565;SDS011;5331;48.148;16.326;2023-03-30T02:21:24;9.27;;;7.87;;
10565;SDS011;5331;48.148;16.326;2023-03-30T02:23:52;8.67;;;7.60;;
10565;SDS011;5331;48.148;16.326;2023-03-30T02:26:22;8.27;;;7.47;;
10565;SDS011;5331;48.148;16.326;2023-03-30T02:28:51;9.03;;;7.33;;
10565;SDS011;5331;48.148;16.326;2023-03-30T02:31:19;8.30;;;7.50;;
10565;SDS011;5331;48.148;16.326;2023-03-30T02:33:51;9.83;;;7.63;;
10565;SDS011;5331;48.148;16.326;2023-03-30T02:36:52;9.33;;;8.03;;
10565;SDS011;5331;48.148;16.326;2023-03-30T02:39:38;9.63;;;8.10;;
10565;SDS011;5331;48.148;16.326;2023-03-30T02:42:23;12.40;;;8.30;;
10565;SDS011;5331;48.148;16.326;2023-03-30T02:45:10;8.80;;;7.40;;
10565;SDS011;5331;48.148;16.326;2023-03-30T02:47:51;9.93;;;7.47;;
10565;SDS011;5331;48.148;16.326;2023-03-30T02:50:29;8.80;;;7.07;;
10565;SDS011;5331;48.148;16.326;2023-03-30T02:53:01;8.60;;;7.70;;
10565;SDS011;5331;48.148;16.326;2023-03-30T02:55:39;9.43;;;8.20;;
10565;SDS011;5331;48.148;16.326;2023-03-30T02:58:15;10.67;;;8.30;;
10565;SDS011;5331;48.148;16.326;2023-03-30T03:00:49;9.63;;;7.77;;
10565;SDS011;5331;48.148;16.326;2023-03-30T03:03:20;8.73;;;7.83;;
10565;SDS011;5331;48.148;16.326;2023-03-30T03:05:49;11.07;;;8.97;;
10565;SDS011;5331;48.148;16.326;2023-03-30T03:08:19;10.73;;;8.77;;
10565;SDS011;5331;48.148;16.326;2023-03-30T03:10:49;9.60;;;8.47;;
10565;SDS011;5331;48.148;16.326;2023-03-30T03:13:17;8.60;;;7.70;;
10565;SDS011;5331;48.148;16.326;2023-03-30T03:15:46;10.77;;;8.27;;
10565;SDS011;5331;48.148;16.326;2023-03-30T03:18:13;11.13;;;9.33;;
10565;SDS011;5331;48.148;16.326;2023-03-30T03:20:40;11.40;;;9.57;;
10565;SDS011;5331;48.148;16.326;2023-03-30T03:23:08;11.87;;;9.17;;
10565;SDS011;5331;48.148;16.326;2023-03-30T03:25:37;10.07;;;8.70;;
10565;SDS011;5331;48.148;16.326;2023-03-30T03:28:04;11.07;;;8.87;;
10565;SDS011;5331;48.148;16.326;2023-03-30T03:30:33;9.27;;;8.37;;
10565;SDS011;5331;48.148;16.326;2023-03-30T03:33:00;10.53;;;9.13;;
10565;SDS011;5331;48.148;16.326;2023-03-30T03:35:27;9.23;;;8.33;;
10565;SDS011;5331;48.148;16.326;2023-03-30T03:37:54;10.43;;;8.10;;
10565;SDS011;5331;48.148;16.326;2023-03-30T03:40:21;10.47;;;8.50;;
10565;SDS011;5331;48.148;16.326;2023-03-30T03:42:48;10.07;;;8.13;;
10565;SDS011;5331;48.148;16.326;2023-03-30T03:45:15;11.00;;;9.13;;
10565;SDS011;5331;48.148;16.326;2023-03-30T03:47:44;9.37;;;7.77;;
10565;SDS011;5331;48.148;16.326;2023-03-30T03:50:11;9.23;;;8.03;;
10565;SDS011;5331;48.148;16.326;2023-03-30T03:52:38;9.77;;;8.47;;
10565;SDS011;5331;48.148;16.326;2023-03-30T03:55:05;12.33;;;8.93;;
10565;SDS011;5331;48.148;16.326;2023-03-30T03:57:33;10.00;;;8.33;;
10565;SDS011;5331;48.148;16.326;2023-03-30T04:00:00;10.93;;;9.27;;
10565;SDS011;5331;48.148;16.326;2023-03-30T04:02:27;9.23;;;8.27;;
10565;SDS011;5331;48.148;16.326;2023-03-30T04:04:56;9.00;;;7.97;;
10565;SDS011;5331;48.148;16.326;2023-03-30T04:07:23;9.83;;;8.40;;
10565;SDS011;5331;48.148;16.326;2023-03-30T04:09:50;11.43;;;9.37;;
10565;SDS011;5331;48.148;16.326;2023-03-30T04:12:17;12.27;;;8.87;;
10565;SDS011;5331;48.148;16.326;2023-03-30T04:14:44;11.43;;;8.87;;
10565;SDS011;5331;48.148;16.326;2023-03-30T04:17:12;11.27;;;8.70;;
10565;SDS011;5331;48.148;16.326;2023-03-30T04:19:39;10.73;;;8.40;;
10565;SDS011;5331;48.148;16.326;2023-03-30T04:22:08;12.00;;;9.60;;
10565;SDS011;5331;48.148;16.326;2023-03-30T04:24:37;11.20;;;9.13;;
10565;SDS011;5331;48.148;16.326;2023-03-30T04:27:05;10.50;;;8.13;;
10565;SDS011;5331;48.148;16.326;2023-03-30T04:29:33;10.00;;;8.70;;
10565;SDS011;5331;48.148;16.326;2023-03-30T04:32:04;11.43;;;9.20;;
10565;SDS011;5331;48.148;16.326;2023-03-30T04:34:31;11.47;;;8.53;;
10565;SDS011;5331;48.148;16.326;2023-03-30T04:36:58;11.83;;;9.07;;
10565;SDS011;5331;48.148;16.326;2023-03-30T04:39:27;10.13;;;8.40;;
10565;SDS011;5331;48.148;16.326;2023-03-30T04:41:54;9.87;;;8.70;;
10565;SDS011;5331;48.148;16.326;2023-03-30T04:44:21;11.17;;;9.13;;
10565;SDS011;5331;48.148;16.326;2023-03-30T04:46:48;10.67;;;8.90;;
10565;SDS011;5331;48.148;16.326;2023-03-30T04:49:15;12.87;;;8.90;;
10565;SDS011;5331;48.148;16.326;2023-03-30T04:51:42;9.97;;;8.40;;
10565;SDS011;5331;48.148;16.326;2023-03-30T04:54:09;10.57;;;8.50;;
10565;SDS011;5331;48.148;16.326;2023-03-30T04:56:38;11.60;;;9.17;;
10565;SDS011;5331;48.148;16.326;2023-03-30T04:59:05;12.03;;;9.23;;
10565;SDS011;5331;48.148;16.326;2023-03-30T05:01:32;10.77;;;8.50;;
10565;SDS011;5331;48.148;16.326;2023-03-30T05:03:59;11.07;;;8.70;;
10565;SDS011;5331;48.148;16.326;2023-03-30T05:06:26;11.40;;;9.03;;
10565;SDS011;5331;48.148;16.326;2023-03-30T05:08:53;10.10;;;8.10;;
10565;SDS011;5331;48.148;16.326;2023-03-30T05:11:20;10.83;;;8.63;;
10565;SDS011;5331;48.148;16.326;2023-03-30T05:13:50;9.03;;;7.90;;
10565;SDS011;5331;48.148;16.326;2023-03-30T05:16:18;11.20;;;8.33;;
10565;SDS011;5331;48.148;16.326;2023-03-30T05:18:46;11.37;;;8.47;;
10565;SDS011;5331;48.148;16.326;2023-03-30T05:21:14;9.17;;;8.27;;
10565;SDS011;5331;48.148;16.326;2023-03-30T05:23:41;9.30;;;7.80;;
10565;SDS011;5331;48.148;16.326;2023-03-30T05:26:08;11.10;;;8.37;;
10565;SDS011;5331;48.148;16.326;2023-03-30T05:28:35;12.87;;;8.83;;
10565;SDS011;5331;48.148;16.326;2023-03-30T05:31:03;10.07;;;8.17;;
10565;SDS011;5331;48.148;16.326;2023-03-30T05:33:30;11.43;;;8.40;;
10565;SDS011;5331;48.148;16.326;2023-03-30T05:35:57;10.10;;;8.27;;
10565;SDS011;5331;48.148;16.326;2023-03-30T05:38:25;9.47;;;8.10;;
10565;SDS011;5331;48.148;16.326;2023-03-30T05:40:52;10.40;;;8.50;;
10565;SDS011;5331;48.148;16.326;2023-03-30T05:43:19;10.67;;;8.50;;
10565;SDS011;5331;48.148;16.326;2023-03-30T05:45:47;9.93;;;8.30;;
10565;SDS011;5331;48.148;16.326;2023-03-30T05:48:16;9.87;;;8.33;;
10565;SDS011;5331;48.148;16.326;2023-03-30T05:50:45;10.60;;;8.17;;
10565;SDS011;5331;48.148;16.326;2023-03-30T05:53:12;10.40;;;7.93;;
10565;SDS011;5331;48.148;16.326;2023-03-30T05:55:42;10.53;;;8.60;;
10565;SDS011;5331;48.148;16.326;2023-03-30T05:58:09;10.97;;;8.10;;
10565;SDS011;5331;48.148;16.326;2023-03-30T06:00:37;9.23;;;8.23;;
10565;SDS011;5331;48.148;16.326;2023-03-30T06:03:05;10.53;;;8.90;;
10565;SDS011;5331;48.148;16.326;2023-03-30T06:05:35;13.03;;;8.57;;
10565;SDS011;5331;48.148;16.326;2023-03-30T06:08:03;9.83;;;8.70;;
10565;SDS011;5331;48.148;16.326;2023-03-30T06:10:32;11.20;;;8.50;;
10565;SDS011;5331;48.148;16.326;2023-03-30T06:12:59;8.40;;;7.60;;
10565;SDS011;5331;48.148;16.326;2023-03-30T06:15:27;9.60;;;7.83;;
10565;SDS011;5331;48.148;16.326;2023-03-30T06:17:54;9.03;;;8.03;;
10565;SDS011;5331;48.148;16.326;2023-03-30T06:20:23;10.60;;;8.77;;
10565;SDS011;5331;48.148;16.326;2023-03-30T06:22:52;12.33;;;8.53;;
10565;SDS011;5331;48.148;16.326;2023-03-30T06:25:22;9.53;;;8.50;;
10565;SDS011;5331;48.148;16.326;2023-03-30T06:27:49;12.30;;;8.43;;
10565;SDS011;5331;48.148;16.326;2023-03-30T06:30:16;9.93;;;8.43;;
10565;SDS011;5331;48.148;16.326;2023-03-30T06:32:43;9.87;;;8.53;;
10565;SDS011;5331;48.148;16.326;2023-03-30T06:35:10;10.33;;;8.47;;
10565;SDS011;5331;48.148;16.326;2023-03-30T06:37:40;10.70;;;8.10;;
10565;SDS011;5331;48.148;16.326;2023-03-30T06:40:09;8.70;;;7.80;;
10565;SDS011;5331;48.148;16.326;2023-03-30T06:42:38;9.73;;;8.70;;
10565;SDS011;5331;48.148;16.326;2023-03-30T06:45:05;11.07;;;8.33;;
10565;SDS011;5331;48.148;16.326;2023-03-30T06:47:34;10.37;;;8.87;;
10565;SDS011;5331;48.148;16.326;2023-03-30T06:50:01;10.80;;;8.63;;
10565;SDS011;5331;48.148;16.326;2023-03-30T06:52:28;9.27;;;8.20;;
10565;SDS011;5331;48.148;16.326;2023-03-30T06:54:59;10.63;;;8.27;;
10565;SDS011;5331;48.148;16.326;2023-03-30T06:57:27;10.97;;;8.63;;
10565;SDS011;5331;48.148;16.326;2023-03-30T06:59:54;11.37;;;8.83;;
10565;SDS011;5331;48.148;16.326;2023-03-30T07:02:21;11.67;;;8.80;;
10565;SDS011;5331;48.148;16.326;2023-03-30T07:04:49;12.63;;;8.57;;
10565;SDS011;5331;48.148;16.326;2023-03-30T07:07:16;12.13;;;8.17;;
10565;SDS011;5331;48.148;16.326;2023-03-30T07:09:43;10.50;;;8.40;;
10565;SDS011;5331;48.148;16.326;2023-03-30T07:12:10;10.60;;;8.10;;
10565;SDS011;5331;48.148;16.326;2023-03-30T07:14:39;10.17;;;8.13;;
10565;SDS011;5331;48.148;16.326;2023-03-30T07:17:09;10.73;;;8.57;;
10565;SDS011;5331;48.148;16.326;2023-03-30T07:19:36;9.47;;;8.10;;
10565;SDS011;5331;48.148;16.326;2023-03-30T07:22:03;10.17;;;8.40;;
10565;SDS011;5331;48.148;16.326;2023-03-30T07:24:30;10.27;;;7.60;;
10565;SDS011;5331;48.148;16.326;2023-03-30T07:26:57;10.03;;;8.30;;
10565;SDS011;5331;48.148;16.326;2023-03-30T07:29:25;11.07;;;8.33;;
10565;SDS011;5331;48.148;16.326;2023-03-30T07:31:54;11.30;;;8.60;;
10565;SDS011;5331;48.148;16.326;2023-03-30T07:34:21;9.47;;;8.57;;
10565;SDS011;5331;48.148;16.326;2023-03-30T07:36:48;10.57;;;8.90;;
10565;SDS011;5331;48.148;16.326;2023-03-30T07:39:15;10.77;;;8.47;;
10565;SDS011;5331;48.148;16.326;2023-03-30T07:41:42;9.77;;;8.77;;
10565;SDS011;5331;48.148;16.326;2023-03-30T07:44:10;9.63;;;8.60;;
10565;SDS011;5331;48.148;16.326;2023-03-30T07:46:37;11.47;;;9.07;;
10565;SDS011;5331;48.148;16.326;2023-03-30T07:49:06;10.20;;;8.40;;
10565;SDS011;5331;48.148;16.326;2023-03-30T07:51:35;11.73;;;8.87;;
10565;SDS011;5331;48.148;16.326;2023-03-30T07:54:03;11.30;;;8.83;;
10565;SDS011;5331;48.148;16.326;2023-03-30T07:56:30;10.17;;;8.97;;
10565;SDS011;5331;48.148;16.326;2023-03-30T07:58:57;11.63;;;8.67;;
10565;SDS011;5331;48.148;16.326;2023-03-30T08:01:24;9.65;;;8.50;;
10565;SDS011;5331;48.148;16.326;2023-03-30T08:03:52;10.80;;;8.23;;
10565;SDS011;5331;48.148;16.326;2023-03-30T08:06:20;11.30;;;9.40;;
10565;SDS011;5331;48.148;16.326;2023-03-30T08:08:47;9.85;;;7.75;;
10565;SDS011;5331;48.148;16.326;2023-03-30T08:11:14;9.13;;;8.02;;
10565;SDS011;5331;48.148;16.326;2023-03-30T08:13:41;10.93;;;8.25;;
10565;SDS011;5331;48.148;16.326;2023-03-30T08:16:08;8.93;;;8.02;;
10565;SDS011;5331;48.148;16.326;2023-03-30T08:18:35;10.07;;;8.05;;
10565;SDS011;5331;48.148;16.326;2023-03-30T08:21:05;8.82;;;7.93;;
10565;SDS011;5331;48.148;16.326;2023-03-30T08:23:34;8.82;;;7.70;;
10565;SDS011;5331;48.148;16.326;2023-03-30T08:26:01;8.75;;;7.53;;
10565;SDS011;5331;48.148;16.326;2023-03-30T08:28:28;8.60;;;7.65;;
10565;SDS011;5331;48.148;16.326;2023-03-30T08:31:01;10.10;;;7.88;;
10565;SDS011;5331;48.148;16.326;2023-03-30T08:33:29;10.07;;;7.38;;
10565;SDS011;5331;48.148;16.326;2023-03-30T08:35:56;10.35;;;7.82;;
10565;SDS011;5331;48.148;16.326;2023-03-30T08:38:24;9.05;;;7.63;;
10565;SDS011;5331;48.148;16.326;2023-03-30T08:40:52;8.52;;;7.45;;
10565;SDS011;5331;48.148;16.326;2023-03-30T08:43:37;9.18;;;7.40;;
10565;SDS011;5331;48.148;16.326;2023-03-30T08:46:10;8.60;;;7.70;;
10565;SDS011;5331;48.148;16.326;2023-03-30T08:48:40;8.80;;;6.97;;
10565;SDS011;5331;48.148;16.326;2023-03-30T08:51:11;10.68;;;7.80;;
10565;SDS011;5331;48.148;16.326;2023-03-30T08:53:54;10.45;;;7.90;;
10565;SDS011;5331;48.148;16.326;2023-03-30T08:56:24;9.45;;;7.88;;
10565;SDS011;5331;48.148;16.326;2023-03-30T08:58:55;10.98;;;7.60;;
10565;SDS011;5331;48.148;16.326;2023-03-30T09:01:32;8.52;;;7.25;;
10565;SDS011;5331;48.148;16.326;2023-03-30T09:04:10;10.65;;;7.32;;
10565;SDS011;5331;48.148;16.326;2023-03-30T09:06:45;7.80;;;6.65;;
10565;SDS011;5331;48.148;16.326;2023-03-30T09:09:16;8.40;;;7.13;;
10565;SDS011;5331;48.148;16.326;2023-03-30T09:11:46;9.43;;;7.47;;
10565;SDS011;5331;48.148;16.326;2023-03-30T09:14:17;7.95;;;7.15;;
10565;SDS011;5331;48.148;16.326;2023-03-30T09:16:51;7.47;;;6.70;;
10565;SDS011;5331;48.148;16.326;2023-03-30T09:19:23;7.72;;;6.95;;
10565;SDS011;5331;48.148;16.326;2023-03-30T09:21:58;8.15;;;7.20;;
10565;SDS011;5331;48.148;16.326;2023-03-30T09:24:31;8.25;;;7.32;;
10565;SDS011;5331;48.148;16.326;2023-03-30T09:27:00;9.20;;;7.80;;
10565;SDS011;5331;48.148;16.326;2023-03-30T09:29:34;9.13;;;7.85;;
10565;SDS011;5331;48.148;16.326;2023-03-30T09:32:10;9.88;;;7.35;;
10565;SDS011;5331;48.148;16.326;2023-03-30T09:34:44;8.15;;;7.30;;
10565;SDS011;5331;48.148;16.326;2023-03-30T09:37:13;9.00;;;8.10;;
10565;SDS011;5331;48.148;16.326;2023-03-30T09:39:43;9.32;;;6.88;;
10565;SDS011;5331;48.148;16.326;2023-03-30T09:42:17;9.95;;;7.07;;
10565;SDS011;5331;48.148;16.326;2023-03-30T09:44:50;9.73;;;7.38;;
10565;SDS011;5331;48.148;16.326;2023-03-30T09:47:23;9.38;;;6.72;;
10565;SDS011;5331;48.148;16.326;2023-03-30T09:49:55;7.63;;;6.75;;
10565;SDS011;5331;48.148;16.326;2023-03-30T09:52:24;7.85;;;7.05;;
10565;SDS011;5331;48.148;16.326;2023-03-30T09:54:52;9.45;;;7.45;;
10565;SDS011;5331;48.148;16.326;2023-03-30T09:57:25;9.40;;;7.47;;
10565;SDS011;5331;48.148;16.326;2023-03-30T09:59:54;9.15;;;7.50;;
10565;SDS011;5331;48.148;16.326;2023-03-30T10:02:23;7.93;;;7.13;;
10565;SDS011;5331;48.148;16.326;2023-03-30T10:04:57;7.95;;;7.15;;
10565;SDS011;5331;48.148;16.326;2023-03-30T10:07:27;8.25;;;7.25;;
10565;SDS011;5331;48.148;16.326;2023-03-30T10:09:57;9.10;;;7.85;;
10565;SDS011;5331;48.148;16.326;2023-03-30T10:12:28;10.13;;;7.50;;
10565;SDS011;5331;48.148;16.326;2023-03-30T10:14:56;8.55;;;7.05;;
10565;SDS011;5331;48.148;16.326;2023-03-30T10:17:26;9.27;;;7.95;;
10565;SDS011;5331;48.148;16.326;2023-03-30T10:22:47;8.70;;;7.80;;
10565;SDS011;5331;48.148;16.326;2023-03-30T10:25:17;10.07;;;7.78;;
10565;SDS011;5331;48.148;16.326;2023-03-30T10:27:49;8.60;;;7.30;;
10565;SDS011;5331;48.148;16.326;2023-03-30T10:30:20;9.60;;;7.40;;
10565;SDS011;5331;48.148;16.326;2023-03-30T10:32:50;8.90;;;7.10;;
10565;SDS011;5331;48.148;16.326;2023-03-30T10:35:18;9.25;;;7.78;;
10565;SDS011;5331;48.148;16.326;2023-03-30T10:37:49;9.43;;;7.25;;
10565;SDS011;5331;48.148;16.326;2023-03-30T10:40:18;8.35;;;7.55;;
10565;SDS011;5331;48.148;16.326;2023-03-30T10:42:49;10.30;;;7.45;;
10565;SDS011;5331;48.148;16.326;2023-03-30T10:45:20;9.05;;;7.55;;
10565;SDS011;5331;48.148;16.326;2023-03-30T10:47:57;10.10;;;7.63;;
10565;SDS011;5331;48.148;16.326;2023-03-30T10:50:43;8.35;;;7.50;;
10565;SDS011;5331;48.148;16.326;2023-03-30T10:53:21;9.23;;;8.32;;
10565;SDS011;5331;48.148;16.326;2023-03-30T10:55:56;9.02;;;7.88;;
10565;SDS011;5331;48.148;16.326;2023-03-30T10:58:36;8.13;;;7.40;;
10565;SDS011;5331;48.148;16.326;2023-03-30T11:01:24;8.50;;;7.53;;
10565;SDS011;5331;48.148;16.326;2023-03-30T11:03:57;11.05;;;8.27;;
10565;SDS011;5331;48.148;16.326;2023-03-30T11:06:28;12.88;;;8.57;;
10565;SDS011;5331;48.148;16.326;2023-03-30T11:09:00;9.52;;;8.55;;
10565;SDS011;5331;48.148;16.326;2023-03-30T11:11:32;9.32;;;8.15;;
10565;SDS011;5331;48.148;16.326;2023-03-30T11:14:06;9.85;;;8.60;;
10565;SDS011;5331;48.148;16.326;2023-03-30T11:16:41;9.23;;;8.23;;
10565;SDS011;5331;48.148;16.326;2023-03-30T11:19:12;8.52;;;7.70;;
10565;SDS011;5331;48.148;16.326;2023-03-30T11:21:45;9.32;;;8.00;;
10565;SDS011;5331;48.148;16.326;2023-03-30T11:24:21;9.95;;;7.80;;
10565;SDS011;5331;48.148;16.326;2023-03-30T11:26:52;10.18;;;7.68;;
10565;SDS011;5331;48.148;16.326;2023-03-30T11:29:28;12.25;;;8.13;;
10565;SDS011;5331;48.148;16.326;2023-03-30T11:32:14;9.20;;;8.10;;
10565;SDS011;5331;48.148;16.326;2023-03-30T11:34:50;9.60;;;8.40;;
10565;SDS011;5331;48.148;16.326;2023-03-30T11:37:27;9.57;;;8.13;;
10565;SDS011;5331;48.148;16.326;2023-03-30T11:39:59;10.10;;;7.85;;
10565;SDS011;5331;48.148;16.326;2023-03-30T11:42:35;10.00;;;8.10;;
10565;SDS011;5331;48.148;16.326;2023-03-30T11:45:08;10.18;;;8.50;;
10565;SDS011;5331;48.148;16.326;2023-03-30T11:47:50;10.90;;;9.13;;
10565;SDS011;5331;48.148;16.326;2023-03-30T11:50:31;10.50;;;8.73;;
10565;SDS011;5331;48.148;16.326;2023-03-30T11:53:22;9.98;;;8.85;;
10565;SDS011;5331;48.148;16.326;2023-03-30T11:56:00;10.55;;;8.68;;
10565;SDS011;5331;48.148;16.326;2023-03-30T11:58:33;11.77;;;8.68;;
10565;SDS011;5331;48.148;16.326;2023-03-30T12:01:09;13.63;;;9.27;;
10565;SDS011;5331;48.148;16.326;2023-03-30T12:03:51;10.00;;;8.73;;
10565;SDS011;5331;48.148;16.326;2023-03-30T12:06:28;9.63;;;8.70;;
10565;SDS011;5331;48.148;16.326;2023-03-30T12:11:50;9.63;;;8.23;;
10565;SDS011;5331;48.148;16.326;2023-03-30T12:14:29;9.93;;;8.75;;
10565;SDS011;5331;48.148;16.326;2023-03-30T12:17:16;8.82;;;7.68;;
10565;SDS011;5331;48.148;16.326;2023-03-30T12:19:52;9.27;;;8.38;;
10565;SDS011;5331;48.148;16.326;2023-03-30T12:22:27;10.80;;;8.32;;
10565;SDS011;5331;48.148;16.326;2023-03-30T12:25:00;9.70;;;8.00;;
10565;SDS011;5331;48.148;16.326;2023-03-30T12:27:50;10.60;;;8.80;;
10565;SDS011;5331;48.148;16.326;2023-03-30T12:30:23;10.05;;;8.27;;
10565;SDS011;5331;48.148;16.326;2023-03-30T12:33:00;11.93;;;9.18;;
10565;SDS011;5331;48.148;16.326;2023-03-30T12:35:44;10.52;;;8.90;;
10565;SDS011;5331;48.148;16.326;2023-03-30T12:38:18;11.35;;;8.98;;
10565;SDS011;5331;48.148;16.326;2023-03-30T12:40:51;11.68;;;9.77;;
10565;SDS011;5331;48.148;16.326;2023-03-30T12:43:28;11.50;;;8.90;;
10565;SDS011;5331;48.148;16.326;2023-03-30T12:46:04;11.57;;;9.00;;
10565;SDS011;5331;48.148;16.326;2023-03-30T12:48:41;12.93;;;9.00;;
10565;SDS011;5331;48.148;16.326;2023-03-30T12:51:16;13.00;;;9.02;;
10565;SDS011;5331;48.148;16.326;2023-03-30T12:54:08;10.30;;;9.27;;
10565;SDS011;5331;48.148;16.326;2023-03-30T12:56:57;11.85;;;9.45;;
10565;SDS011;5331;48.148;16.326;2023-03-30T12:59:34;11.18;;;9.70;;
10565;SDS011;5331;48.148;16.326;2023-03-30T13:02:28;10.50;;;9.45;;
10565;SDS011;5331;48.148;16.326;2023-03-30T13:05:18;12.60;;;10.00;;
10565;SDS011;5331;48.148;16.326;2023-03-30T13:07:50;11.40;;;10.30;;
10565;SDS011;5331;48.148;16.326;2023-03-30T13:10:33;11.30;;;9.95;;
10565;SDS011;5331;48.148;16.326;2023-03-30T13:13:06;11.18;;;10.02;;
10565;SDS011;5331;48.148;16.326;2023-03-30T13:15:45;10.63;;;9.52;;
10565;SDS011;5331;48.148;16.326;2023-03-30T13:21:21;11.25;;;10.10;;
10565;SDS011;5331;48.148;16.326;2023-03-30T13:24:00;13.98;;;10.65;;
10565;SDS011;5331;48.148;16.326;2023-03-30T13:26:38;12.20;;;10.52;;
10565;SDS011;5331;48.148;16.326;2023-03-30T13:29:07;11.82;;;10.38;;
10565;SDS011;5331;48.148;16.326;2023-03-30T13:31:42;12.23;;;10.68;;
10565;SDS011;5331;48.148;16.326;2023-03-30T13:34:21;14.60;;;11.82;;
10565;SDS011;5331;48.148;16.326;2023-03-30T13:37:02;13.15;;;10.70;;
10565;SDS011;5331;48.148;16.326;2023-03-30T13:39:42;13.07;;;10.55;;
10565;SDS011;5331;48.148;16.326;2023-03-30T13:42:34;12.90;;;10.40;;
10565;SDS011;5331;48.148;16.326;2023-03-30T13:45:18;10.40;;;9.38;;
10565;SDS011;5331;48.148;16.326;2023-03-30T13:48:05;11.00;;;8.95;;
10565;SDS011;5331;48.148;16.326;2023-03-30T13:50:45;11.07;;;9.55;;
10565;SDS011;5331;48.148;16.326;2023-03-30T13:53:17;11.77;;;9.77;;
10565;SDS011;5331;48.148;16.326;2023-03-30T13:55:45;11.35;;;9.82;;
10565;SDS011;5331;48.148;16.326;2023-03-30T13:58:14;22.08;;;14.38;;
10565;SDS011;5331;48.148;16.326;2023-03-30T14:00:44;19.75;;;13.75;;
10565;SDS011;5331;48.148;16.326;2023-03-30T14:03:31;10.70;;;9.70;;
10565;SDS011;5331;48.148;16.326;2023-03-30T14:06:01;10.23;;;9.20;;
10565;SDS011;5331;48.148;16.326;2023-03-30T14:08:33;11.15;;;9.18;;
10565;SDS011;5331;48.148;16.326;2023-03-30T14:11:07;11.57;;;9.65;;
10565;SDS011;5331;48.148;16.326;2023-03-30T14:13:40;10.50;;;9.32;;
10565;SDS011;5331;48.148;16.326;2023-03-30T14:16:08;11.02;;;9.30;;
10565;SDS011;5331;48.148;16.326;2023-03-30T14:18:38;11.30;;;10.07;;
10565;SDS011;5331;48.148;16.326;2023-03-30T14:21:07;12.88;;;9.77;;
10565;SDS011;5331;48.148;16.326;2023-03-30T14:23:41;10.68;;;9.20;;
10565;SDS011;5331;48.148;16.326;2023-03-30T14:26:12;13.88;;;10.30;;
10565;SDS011;5331;48.148;16.326;2023-03-30T14:28:40;11.93;;;9.77;;
10565;SDS011;5331;48.148;16.326;2023-03-30T14:31:12;11.05;;;9.68;;
10565;SDS011;5331;48.148;16.326;2023-03-30T14:33:41;10.55;;;9.00;;
10565;SDS011;5331;48.148;16.326;2023-03-30T14:36:08;9.55;;;8.63;;
10565;SDS011;5331;48.148;16.326;2023-03-30T14:38:37;9.68;;;8.68;;
10565;SDS011;5331;48.148;16.326;2023-03-30T14:41:09;12.27;;;9.65;;
10565;SDS011;5331;48.148;16.326;2023-03-30T14:43:41;14.77;;;13.18;;
10565;SDS011;5331;48.148;16.326;2023-03-30T14:46:12;11.57;;;10.35;;
10565;SDS011;5331;48.148;16.326;2023-03-30T14:48:39;10.07;;;9.07;;
10565;SDS011;5331;48.148;16.326;2023-03-30T14:51:18;12.15;;;10.20;;
10565;SDS011;5331;48.148;16.326;2023-03-30T14:53:49;11.70;;;9.70;;
10565;SDS011;5331;48.148;16.326;2023-03-30T14:56:18;10.57;;;9.48;;
10565;SDS011;5331;48.148;16.326;2023-03-30T14:58:47;17.77;;;12.70;;
10565;SDS011;5331;48.148;16.326;2023-03-30T15:01:17;14.85;;;11.93;;
10565;SDS011;5331;48.148;16.326;2023-03-30T15:03:49;15.82;;;12.23;;
10565;SDS011;5331;48.148;16.326;2023-03-30T15:06:19;11.38;;;9.82;;
10565;SDS011;5331;48.148;16.326;2023-03-30T15:08:51;10.00;;;9.00;;
10565;SDS011;5331;48.148;16.326;2023-03-30T15:11:19;11.73;;;9.52;;
10565;SDS011;5331;48.148;16.326;2023-03-30T15:13:49;13.18;;;9.75;;
10565;SDS011;5331;48.148;16.326;2023-03-30T15:16:18;10.57;;;9.38;;
10565;SDS011;5331;48.148;16.326;2023-03-30T15:18:48;9.38;;;8.40;;
10565;SDS011;5331;48.148;16.326;2023-03-30T15:21:17;12.32;;;9.88;;